sensor_id;sensor_type;location;lat;lon;timestamp;P1;durP1;ratioP1;P2;durP2;ratioP2
9827;SDS011;4953;48.952;9.442;2022-08-14T04:01:17;6.73;;;4.73;;
9827;SDS011;4953;48.952;9.442;2022-08-14T04:03:45;5.30;;;4.27;;
9827;SDS011;4953;48.952;9.442;2022-08-14T04:06:13;5.40;;;4.67;;
9827;SDS011;4953;48.952;9.442;2022-08-14T04:08:41;8.03;;;4.90;;
9827;SDS011;4953;48.952;9.442;2022-08-14T04:11:08;4.80;;;4.40;;
9827;SDS011;4953;48.952;9.442;2022-08-14T04:13:36;5.40;;;4.47;;
9827;SDS011;4953;48.952;9.442;2022-08-14T04:16:06;7.97;;;5.10;;
9827;SDS011;4953;48.952;9.442;2022-08-14T04:18:38;4.60;;;4.20;;
9827;SDS011;4953;48.952;9.442;2022-08-14T04:21:05;5.27;;;4.77;;
9827;SDS011;4953;48.952;9.442;2022-08-14T04:23:34;5.30;;;4.80;;
9827;SDS011;4953;48.952;9.442;2022-08-14T04:26:01;5.20;;;4.70;;
9827;SDS011;4953;48.952;9.442;2022-08-14T04:28:29;5.40;;;4.90;;
9827;SDS011;4953;48.952;9.442;2022-08-14T04:30:57;5.47;;;4.97;;
9827;SDS011;4953;48.952;9.442;2022-08-14T04:33:24;5.57;;;5.07;;
9827;SDS011;4953;48.952;9.442;2022-08-14T04:35:54;6.67;;;4.70;;
9827;SDS011;4953;48.952;9.442;2022-08-14T04:38:22;6.10;;;5.50;;
9827;SDS011;4953;48.952;9.442;2022-08-14T04:41:06;7.60;;;4.63;;
9827;SDS011;4953;48.952;9.442;2022-08-14T04:43:51;5.80;;;4.47;;
9827;SDS011;4953;48.952;9.442;2022-08-14T04:46:18;9.20;;;5.00;;
9827;SDS011;4953;48.952;9.442;2022-08-14T04:48:46;6.63;;;4.70;;
9827;SDS011;4953;48.952;9.442;2022-08-14T04:51:15;4.87;;;4.27;;
9827;SDS011;4953;48.952;9.442;2022-08-14T04:53:43;5.47;;;4.93;;
9827;SDS011;4953;48.952;9.442;2022-08-14T04:56:13;5.40;;;4.90;;
9827;SDS011;4953;48.952;9.442;2022-08-14T04:58:42;6.03;;;4.93;;
9827;SDS011;4953;48.952;9.442;2022-08-14T05:01:09;6.00;;;5.50;;
9827;SDS011;4953;48.952;9.442;2022-08-14T05:03:37;6.00;;;5.47;;
9827;SDS011;4953;48.952;9.442;2022-08-14T05:06:05;6.00;;;5.40;;
9827;SDS011;4953;48.952;9.442;2022-08-14T05:08:35;6.53;;;5.73;;
9827;SDS011;4953;48.952;9.442;2022-08-14T05:11:02;5.63;;;5.10;;
9827;SDS011;4953;48.952;9.442;2022-08-14T05:13:32;5.43;;;4.93;;
9827;SDS011;4953;48.952;9.442;2022-08-14T05:16:01;6.23;;;5.63;;
9827;SDS011;4953;48.952;9.442;2022-08-14T05:18:29;5.63;;;5.13;;
9827;SDS011;4953;48.952;9.442;2022-08-14T05:21:00;7.00;;;5.90;;
9827;SDS011;4953;48.952;9.442;2022-08-14T05:23:30;6.20;;;5.70;;
9827;SDS011;4953;48.952;9.442;2022-08-14T05:26:01;6.17;;;5.57;;
9827;SDS011;4953;48.952;9.442;2022-08-14T05:28:32;5.70;;;5.20;;
9827;SDS011;4953;48.952;9.442;2022-08-14T05:31:01;7.17;;;5.20;;
9827;SDS011;4953;48.952;9.442;2022-08-14T05:33:31;6.20;;;5.60;;
9827;SDS011;4953;48.952;9.442;2022-08-14T05:35:59;6.00;;;5.50;;
9827;SDS011;4953;48.952;9.442;2022-08-14T05:38:29;6.27;;;5.70;;
9827;SDS011;4953;48.952;9.442;2022-08-14T05:41:01;6.33;;;5.73;;
9827;SDS011;4953;48.952;9.442;2022-08-14T05:43:29;7.13;;;6.00;;
9827;SDS011;4953;48.952;9.442;2022-08-14T05:45:57;5.77;;;5.27;;
9827;SDS011;4953;48.952;9.442;2022-08-14T05:48:25;5.93;;;5.43;;
9827;SDS011;4953;48.952;9.442;2022-08-14T05:50:53;6.73;;;5.93;;
9827;SDS011;4953;48.952;9.442;2022-08-14T05:53:20;6.33;;;5.70;;
9827;SDS011;4953;48.952;9.442;2022-08-14T05:55:48;6.90;;;5.60;;
9827;SDS011;4953;48.952;9.442;2022-08-14T05:58:16;6.27;;;5.67;;
9827;SDS011;4953;48.952;9.442;2022-08-14T06:00:44;6.53;;;5.80;;
9827;SDS011;4953;48.952;9.442;2022-08-14T06:03:12;6.60;;;6.00;;
9827;SDS011;4953;48.952;9.442;2022-08-14T06:05:41;6.57;;;5.60;;
9827;SDS011;4953;48.952;9.442;2022-08-14T06:08:15;5.90;;;5.40;;
9827;SDS011;4953;48.952;9.442;2022-08-14T06:10:44;5.50;;;4.97;;
9827;SDS011;4953;48.952;9.442;2022-08-14T06:13:11;5.77;;;5.23;;
9827;SDS011;4953;48.952;9.442;2022-08-14T06:15:40;6.33;;;5.10;;
9827;SDS011;4953;48.952;9.442;2022-08-14T06:18:07;6.00;;;5.37;;
9827;SDS011;4953;48.952;9.442;2022-08-14T06:20:35;9.43;;;4.50;;
9827;SDS011;4953;48.952;9.442;2022-08-14T06:23:03;6.70;;;4.90;;
9827;SDS011;4953;48.952;9.442;2022-08-14T06:25:30;5.63;;;4.90;;
9827;SDS011;4953;48.952;9.442;2022-08-14T06:27:57;5.60;;;5.10;;
9827;SDS011;4953;48.952;9.442;2022-08-14T06:30:25;5.83;;;5.33;;
9827;SDS011;4953;48.952;9.442;2022-08-14T06:32:55;6.60;;;5.90;;
9827;SDS011;4953;48.952;9.442;2022-08-14T06:35:22;6.77;;;5.80;;
9827;SDS011;4953;48.952;9.442;2022-08-14T06:37:49;6.67;;;6.00;;
9827;SDS011;4953;48.952;9.442;2022-08-14T06:40:18;5.67;;;5.17;;
9827;SDS011;4953;48.952;9.442;2022-08-14T06:42:46;5.50;;;5.00;;
9827;SDS011;4953;48.952;9.442;2022-08-14T06:45:14;6.07;;;5.00;;
9827;SDS011;4953;48.952;9.442;2022-08-14T06:47:41;6.40;;;5.43;;
9827;SDS011;4953;48.952;9.442;2022-08-14T06:50:13;6.13;;;5.63;;
9827;SDS011;4953;48.952;9.442;2022-08-14T06:52:42;6.87;;;5.27;;
9827;SDS011;4953;48.952;9.442;2022-08-14T06:55:10;7.50;;;5.73;;
9827;SDS011;4953;48.952;9.442;2022-08-14T06:57:39;5.50;;;5.00;;
9827;SDS011;4953;48.952;9.442;2022-08-14T07:00:08;5.83;;;5.23;;
9827;SDS011;4953;48.952;9.442;2022-08-14T07:02:37;6.30;;;5.40;;
9827;SDS011;4953;48.952;9.442;2022-08-14T07:05:23;6.07;;;5.53;;
9827;SDS011;4953;48.952;9.442;2022-08-14T07:08:11;7.03;;;5.50;;
9827;SDS011;4953;48.952;9.442;2022-08-14T07:10:39;5.60;;;5.10;;
9827;SDS011;4953;48.952;9.442;2022-08-14T07:13:08;5.40;;;4.90;;
9827;SDS011;4953;48.952;9.442;2022-08-14T07:15:39;6.23;;;5.10;;
9827;SDS011;4953;48.952;9.442;2022-08-14T07:18:06;5.70;;;5.20;;
9827;SDS011;4953;48.952;9.442;2022-08-14T07:20:35;5.70;;;4.83;;
9827;SDS011;4953;48.952;9.442;2022-08-14T07:23:03;5.20;;;4.80;;
9827;SDS011;4953;48.952;9.442;2022-08-14T07:25:31;5.57;;;4.80;;
9827;SDS011;4953;48.952;9.442;2022-08-14T07:27:58;6.27;;;4.63;;
9827;SDS011;4953;48.952;9.442;2022-08-14T07:30:25;5.60;;;4.23;;
9827;SDS011;4953;48.952;9.442;2022-08-14T07:32:52;4.80;;;3.90;;
9827;SDS011;4953;48.952;9.442;2022-08-14T07:35:19;4.23;;;3.83;;
9827;SDS011;4953;48.952;9.442;2022-08-14T07:37:48;5.60;;;4.30;;
9827;SDS011;4953;48.952;9.442;2022-08-14T07:40:15;5.03;;;4.10;;
9827;SDS011;4953;48.952;9.442;2022-08-14T07:42:42;5.00;;;4.60;;
9827;SDS011;4953;48.952;9.442;2022-08-14T07:45:09;6.40;;;4.80;;
9827;SDS011;4953;48.952;9.442;2022-08-14T07:47:38;5.20;;;4.40;;
9827;SDS011;4953;48.952;9.442;2022-08-14T07:50:10;5.73;;;4.50;;
9827;SDS011;4953;48.952;9.442;2022-08-14T07:52:38;5.67;;;4.80;;
9827;SDS011;4953;48.952;9.442;2022-08-14T07:55:07;5.20;;;4.10;;
9827;SDS011;4953;48.952;9.442;2022-08-14T07:57:36;4.57;;;4.17;;
9827;SDS011;4953;48.952;9.442;2022-08-14T08:00:05;4.90;;;4.03;;
9827;SDS011;4953;48.952;9.442;2022-08-14T08:02:35;4.73;;;4.20;;
9827;SDS011;4953;48.952;9.442;2022-08-14T08:05:05;4.60;;;4.20;;
9827;SDS011;4953;48.952;9.442;2022-08-14T08:07:33;4.30;;;3.77;;
9827;SDS011;4953;48.952;9.442;2022-08-14T08:10:04;4.30;;;3.83;;
9827;SDS011;4953;48.952;9.442;2022-08-14T08:12:48;4.37;;;3.97;;
9827;SDS011;4953;48.952;9.442;2022-08-14T08:15:17;6.57;;;3.70;;
9827;SDS011;4953;48.952;9.442;2022-08-14T08:17:44;5.53;;;3.70;;
9827;SDS011;4953;48.952;9.442;2022-08-14T08:20:14;3.70;;;3.40;;
9827;SDS011;4953;48.952;9.442;2022-08-14T08:22:42;3.80;;;3.50;;
9827;SDS011;4953;48.952;9.442;2022-08-14T08:25:08;4.83;;;3.33;;
9827;SDS011;4953;48.952;9.442;2022-08-14T08:27:36;3.70;;;3.30;;
9827;SDS011;4953;48.952;9.442;2022-08-14T08:30:05;3.80;;;2.90;;
9827;SDS011;4953;48.952;9.442;2022-08-14T08:32:38;3.90;;;3.03;;
9827;SDS011;4953;48.952;9.442;2022-08-14T08:35:08;6.50;;;3.60;;
9827;SDS011;4953;48.952;9.442;2022-08-14T08:37:41;4.13;;;3.23;;
9827;SDS011;4953;48.952;9.442;2022-08-14T08:40:08;4.73;;;3.50;;
9827;SDS011;4953;48.952;9.442;2022-08-14T08:42:36;3.70;;;2.93;;
9827;SDS011;4953;48.952;9.442;2022-08-14T08:45:05;3.27;;;2.97;;
9827;SDS011;4953;48.952;9.442;2022-08-14T08:47:37;4.20;;;3.53;;
9827;SDS011;4953;48.952;9.442;2022-08-14T08:50:14;3.57;;;3.27;;
9827;SDS011;4953;48.952;9.442;2022-08-14T08:52:46;3.97;;;2.90;;
9827;SDS011;4953;48.952;9.442;2022-08-14T08:55:14;3.43;;;3.10;;
9827;SDS011;4953;48.952;9.442;2022-08-14T08:57:42;6.07;;;3.00;;
9827;SDS011;4953;48.952;9.442;2022-08-14T09:00:14;4.63;;;3.17;;
9827;SDS011;4953;48.952;9.442;2022-08-14T09:02:51;3.23;;;2.93;;
9827;SDS011;4953;48.952;9.442;2022-08-14T09:05:26;3.20;;;2.70;;
9827;SDS011;4953;48.952;9.442;2022-08-14T09:07:53;3.27;;;2.83;;
9827;SDS011;4953;48.952;9.442;2022-08-14T09:10:20;3.07;;;2.77;;
9827;SDS011;4953;48.952;9.442;2022-08-14T09:12:47;5.00;;;2.93;;
9827;SDS011;4953;48.952;9.442;2022-08-14T09:15:15;4.07;;;2.90;;
9827;SDS011;4953;48.952;9.442;2022-08-14T09:17:42;4.63;;;3.00;;
9827;SDS011;4953;48.952;9.442;2022-08-14T09:20:10;3.33;;;2.57;;
9827;SDS011;4953;48.952;9.442;2022-08-14T09:22:38;5.93;;;3.17;;
9827;SDS011;4953;48.952;9.442;2022-08-14T09:25:05;3.20;;;2.70;;
9827;SDS011;4953;48.952;9.442;2022-08-14T09:27:33;2.90;;;2.63;;
9827;SDS011;4953;48.952;9.442;2022-08-14T09:30:01;2.93;;;2.73;;
9827;SDS011;4953;48.952;9.442;2022-08-14T09:32:34;3.13;;;2.83;;
9827;SDS011;4953;48.952;9.442;2022-08-14T09:35:11;4.50;;;2.73;;
9827;SDS011;4953;48.952;9.442;2022-08-14T09:37:47;3.53;;;3.23;;
9827;SDS011;4953;48.952;9.442;2022-08-14T09:40:26;3.50;;;3.20;;
9827;SDS011;4953;48.952;9.442;2022-08-14T09:43:03;5.63;;;3.07;;
9827;SDS011;4953;48.952;9.442;2022-08-14T09:45:42;3.40;;;3.10;;
9827;SDS011;4953;48.952;9.442;2022-08-14T09:48:14;4.37;;;3.47;;
9827;SDS011;4953;48.952;9.442;2022-08-14T09:50:46;3.83;;;3.40;;
9827;SDS011;4953;48.952;9.442;2022-08-14T09:53:15;3.43;;;3.07;;
9827;SDS011;4953;48.952;9.442;2022-08-14T09:55:44;3.70;;;2.97;;
9827;SDS011;4953;48.952;9.442;2022-08-14T09:58:22;4.70;;;3.40;;
9827;SDS011;4953;48.952;9.442;2022-08-14T10:01:07;6.73;;;3.43;;
9827;SDS011;4953;48.952;9.442;2022-08-14T10:03:46;3.30;;;3.00;;
9827;SDS011;4953;48.952;9.442;2022-08-14T10:06:16;3.73;;;3.40;;
9827;SDS011;4953;48.952;9.442;2022-08-14T10:08:45;3.37;;;3.10;;
9827;SDS011;4953;48.952;9.442;2022-08-14T10:11:15;4.80;;;3.43;;
9827;SDS011;4953;48.952;9.442;2022-08-14T10:13:44;3.17;;;2.87;;
9827;SDS011;4953;48.952;9.442;2022-08-14T10:16:18;3.13;;;2.83;;
9827;SDS011;4953;48.952;9.442;2022-08-14T10:19:01;3.03;;;2.83;;
9827;SDS011;4953;48.952;9.442;2022-08-14T10:21:30;4.13;;;3.17;;
9827;SDS011;4953;48.952;9.442;2022-08-14T10:23:57;3.70;;;2.70;;
9827;SDS011;4953;48.952;9.442;2022-08-14T10:26:24;2.90;;;2.70;;
9827;SDS011;4953;48.952;9.442;2022-08-14T10:28:52;3.37;;;3.03;;
9827;SDS011;4953;48.952;9.442;2022-08-14T10:31:21;3.60;;;3.30;;
9827;SDS011;4953;48.952;9.442;2022-08-14T10:33:56;4.33;;;3.23;;
9827;SDS011;4953;48.952;9.442;2022-08-14T10:36:27;3.93;;;3.63;;
9827;SDS011;4953;48.952;9.442;2022-08-14T10:39:01;3.57;;;3.27;;
9827;SDS011;4953;48.952;9.442;2022-08-14T10:41:37;3.40;;;3.10;;
9827;SDS011;4953;48.952;9.442;2022-08-14T10:44:06;4.50;;;3.30;;
9827;SDS011;4953;48.952;9.442;2022-08-14T10:46:39;3.40;;;3.10;;
9827;SDS011;4953;48.952;9.442;2022-08-14T10:49:15;4.20;;;3.60;;
9827;SDS011;4953;48.952;9.442;2022-08-14T10:51:54;4.20;;;3.67;;
9827;SDS011;4953;48.952;9.442;2022-08-14T10:54:29;4.80;;;3.67;;
9827;SDS011;4953;48.952;9.442;2022-08-14T10:57:09;3.50;;;3.20;;
9827;SDS011;4953;48.952;9.442;2022-08-14T10:59:41;4.30;;;3.40;;
9827;SDS011;4953;48.952;9.442;2022-08-14T11:02:23;3.90;;;3.47;;
9827;SDS011;4953;48.952;9.442;2022-08-14T11:04:58;3.37;;;3.07;;
9827;SDS011;4953;48.952;9.442;2022-08-14T11:07:28;3.60;;;2.90;;
9827;SDS011;4953;48.952;9.442;2022-08-14T11:09:56;4.70;;;3.30;;
9827;SDS011;4953;48.952;9.442;2022-08-14T11:12:26;4.43;;;3.20;;
9827;SDS011;4953;48.952;9.442;2022-08-14T11:15:06;3.60;;;3.20;;
9827;SDS011;4953;48.952;9.442;2022-08-14T11:17:34;3.60;;;2.90;;
9827;SDS011;4953;48.952;9.442;2022-08-14T11:20:03;3.43;;;3.10;;
9827;SDS011;4953;48.952;9.442;2022-08-14T11:22:33;3.53;;;3.23;;
9827;SDS011;4953;48.952;9.442;2022-08-14T11:25:05;4.33;;;3.73;;
9827;SDS011;4953;48.952;9.442;2022-08-14T11:27:34;3.80;;;3.50;;
9827;SDS011;4953;48.952;9.442;2022-08-14T11:30:03;3.57;;;3.10;;
9827;SDS011;4953;48.952;9.442;2022-08-14T11:32:32;9.37;;;3.43;;
9827;SDS011;4953;48.952;9.442;2022-08-14T11:35:00;6.30;;;3.30;;
9827;SDS011;4953;48.952;9.442;2022-08-14T11:37:27;3.63;;;3.10;;
9827;SDS011;4953;48.952;9.442;2022-08-14T11:39:59;4.80;;;3.03;;
9827;SDS011;4953;48.952;9.442;2022-08-14T11:42:26;4.23;;;3.40;;
9827;SDS011;4953;48.952;9.442;2022-08-14T11:44:56;3.97;;;3.30;;
9827;SDS011;4953;48.952;9.442;2022-08-14T11:47:24;4.10;;;3.00;;
9827;SDS011;4953;48.952;9.442;2022-08-14T11:49:52;4.23;;;2.80;;
9827;SDS011;4953;48.952;9.442;2022-08-14T11:52:19;4.03;;;3.00;;
9827;SDS011;4953;48.952;9.442;2022-08-14T11:54:55;4.30;;;3.77;;
9827;SDS011;4953;48.952;9.442;2022-08-14T11:57:23;3.37;;;3.07;;
9827;SDS011;4953;48.952;9.442;2022-08-14T11:59:59;4.30;;;3.07;;
9827;SDS011;4953;48.952;9.442;2022-08-14T12:02:26;3.57;;;3.20;;
9827;SDS011;4953;48.952;9.442;2022-08-14T12:04:53;4.03;;;3.63;;
9827;SDS011;4953;48.952;9.442;2022-08-14T12:07:20;3.80;;;3.50;;
9827;SDS011;4953;48.952;9.442;2022-08-14T12:09:50;3.30;;;3.00;;
9827;SDS011;4953;48.952;9.442;2022-08-14T12:12:20;3.53;;;3.23;;
9827;SDS011;4953;48.952;9.442;2022-08-14T12:14:50;6.83;;;3.00;;
9827;SDS011;4953;48.952;9.442;2022-08-14T12:17:20;5.10;;;2.97;;
9827;SDS011;4953;48.952;9.442;2022-08-14T12:19:49;6.10;;;3.20;;
9827;SDS011;4953;48.952;9.442;2022-08-14T12:22:18;4.70;;;2.93;;
9827;SDS011;4953;48.952;9.442;2022-08-14T12:24:48;4.40;;;3.00;;
9827;SDS011;4953;48.952;9.442;2022-08-14T12:27:15;4.53;;;3.43;;
9827;SDS011;4953;48.952;9.442;2022-08-14T12:29:52;3.37;;;3.10;;
9827;SDS011;4953;48.952;9.442;2022-08-14T12:32:21;3.30;;;2.80;;
9827;SDS011;4953;48.952;9.442;2022-08-14T12:34:51;5.00;;;3.23;;
9827;SDS011;4953;48.952;9.442;2022-08-14T12:37:27;3.30;;;3.00;;
9827;SDS011;4953;48.952;9.442;2022-08-14T12:39:55;3.87;;;3.47;;
9827;SDS011;4953;48.952;9.442;2022-08-14T12:42:33;2.80;;;2.60;;
9827;SDS011;4953;48.952;9.442;2022-08-14T12:45:02;7.30;;;3.03;;
9827;SDS011;4953;48.952;9.442;2022-08-14T12:47:30;5.10;;;3.30;;
9827;SDS011;4953;48.952;9.442;2022-08-14T12:49:56;2.90;;;2.70;;
9827;SDS011;4953;48.952;9.442;2022-08-14T12:52:27;3.57;;;3.27;;
9827;SDS011;4953;48.952;9.442;2022-08-14T12:54:57;3.93;;;3.27;;
9827;SDS011;4953;48.952;9.442;2022-08-14T12:57:32;3.63;;;3.33;;
9827;SDS011;4953;48.952;9.442;2022-08-14T13:00:06;3.43;;;3.13;;
9827;SDS011;4953;48.952;9.442;2022-08-14T13:02:38;4.10;;;3.70;;
9827;SDS011;4953;48.952;9.442;2022-08-14T13:05:06;3.47;;;3.10;;
9827;SDS011;4953;48.952;9.442;2022-08-14T13:07:37;2.80;;;2.60;;
9827;SDS011;4953;48.952;9.442;2022-08-14T13:10:05;3.40;;;3.10;;
9827;SDS011;4953;48.952;9.442;2022-08-14T13:12:33;3.50;;;3.20;;
9827;SDS011;4953;48.952;9.442;2022-08-14T13:15:03;3.80;;;3.50;;
9827;SDS011;4953;48.952;9.442;2022-08-14T13:17:35;6.40;;;3.20;;
9827;SDS011;4953;48.952;9.442;2022-08-14T13:20:06;4.07;;;3.30;;
9827;SDS011;4953;48.952;9.442;2022-08-14T13:22:35;6.93;;;3.60;;
9827;SDS011;4953;48.952;9.442;2022-08-14T13:25:04;4.67;;;3.47;;
9827;SDS011;4953;48.952;9.442;2022-08-14T13:27:31;3.10;;;2.80;;
9827;SDS011;4953;48.952;9.442;2022-08-14T13:30:00;5.00;;;3.27;;
9827;SDS011;4953;48.952;9.442;2022-08-14T13:32:29;5.00;;;3.20;;
9827;SDS011;4953;48.952;9.442;2022-08-14T13:34:57;3.60;;;3.30;;
9827;SDS011;4953;48.952;9.442;2022-08-14T13:37:25;4.57;;;2.93;;
9827;SDS011;4953;48.952;9.442;2022-08-14T13:39:53;3.30;;;3.00;;
9827;SDS011;4953;48.952;9.442;2022-08-14T13:42:21;4.13;;;3.40;;
9827;SDS011;4953;48.952;9.442;2022-08-14T13:44:52;3.63;;;3.27;;
9827;SDS011;4953;48.952;9.442;2022-08-14T13:47:19;4.27;;;3.33;;
9827;SDS011;4953;48.952;9.442;2022-08-14T13:49:49;3.73;;;2.70;;
9827;SDS011;4953;48.952;9.442;2022-08-14T13:52:19;3.50;;;3.23;;
9827;SDS011;4953;48.952;9.442;2022-08-14T13:54:47;3.70;;;3.27;;
9827;SDS011;4953;48.952;9.442;2022-08-14T13:57:15;3.27;;;2.97;;
9827;SDS011;4953;48.952;9.442;2022-08-14T13:59:44;5.60;;;3.33;;
9827;SDS011;4953;48.952;9.442;2022-08-14T14:02:12;3.40;;;3.10;;
9827;SDS011;4953;48.952;9.442;2022-08-14T14:04:43;3.53;;;3.23;;
9827;SDS011;4953;48.952;9.442;2022-08-14T14:07:14;4.83;;;3.17;;
9827;SDS011;4953;48.952;9.442;2022-08-14T14:09:47;3.43;;;3.13;;
9827;SDS011;4953;48.952;9.442;2022-08-14T14:12:14;3.43;;;3.13;;
9827;SDS011;4953;48.952;9.442;2022-08-14T14:14:41;3.27;;;2.97;;
9827;SDS011;4953;48.952;9.442;2022-08-14T14:17:14;3.00;;;2.70;;
9827;SDS011;4953;48.952;9.442;2022-08-14T14:19:43;3.40;;;3.10;;
9827;SDS011;4953;48.952;9.442;2022-08-14T14:22:10;3.57;;;3.27;;
9827;SDS011;4953;48.952;9.442;2022-08-14T14:24:41;4.63;;;3.37;;
9827;SDS011;4953;48.952;9.442;2022-08-14T14:27:09;3.50;;;3.10;;
9827;SDS011;4953;48.952;9.442;2022-08-14T14:29:41;2.90;;;2.60;;
9827;SDS011;4953;48.952;9.442;2022-08-14T14:32:10;5.20;;;3.10;;
9827;SDS011;4953;48.952;9.442;2022-08-14T14:34:38;3.27;;;2.97;;
9827;SDS011;4953;48.952;9.442;2022-08-14T14:37:10;3.33;;;3.03;;
9827;SDS011;4953;48.952;9.442;2022-08-14T14:39:40;3.40;;;2.90;;
9827;SDS011;4953;48.952;9.442;2022-08-14T14:42:07;3.47;;;3.17;;
9827;SDS011;4953;48.952;9.442;2022-08-14T14:44:36;2.93;;;2.63;;
9827;SDS011;4953;48.952;9.442;2022-08-14T14:47:06;3.90;;;3.23;;
9827;SDS011;4953;48.952;9.442;2022-08-14T14:49:34;3.57;;;3.27;;
9827;SDS011;4953;48.952;9.442;2022-08-14T14:52:02;3.60;;;3.30;;
9827;SDS011;4953;48.952;9.442;2022-08-14T14:54:31;3.50;;;3.20;;
9827;SDS011;4953;48.952;9.442;2022-08-14T14:56:59;3.70;;;3.40;;
9827;SDS011;4953;48.952;9.442;2022-08-14T14:59:26;3.10;;;2.60;;
9827;SDS011;4953;48.952;9.442;2022-08-14T15:01:53;3.37;;;3.00;;
9827;SDS011;4953;48.952;9.442;2022-08-14T15:04:25;3.63;;;2.97;;
9827;SDS011;4953;48.952;9.442;2022-08-14T15:06:52;3.50;;;3.17;;
9827;SDS011;4953;48.952;9.442;2022-08-14T15:09:19;3.10;;;2.90;;
9827;SDS011;4953;48.952;9.442;2022-08-14T15:11:47;3.03;;;2.73;;
9827;SDS011;4953;48.952;9.442;2022-08-14T15:14:17;2.60;;;2.40;;
9827;SDS011;4953;48.952;9.442;2022-08-14T15:16:44;2.77;;;2.57;;
9827;SDS011;4953;48.952;9.442;2022-08-14T15:19:11;3.90;;;2.67;;
9827;SDS011;4953;48.952;9.442;2022-08-14T15:21:38;4.10;;;2.70;;
9827;SDS011;4953;48.952;9.442;2022-08-14T15:24:05;3.53;;;2.90;;
9827;SDS011;4953;48.952;9.442;2022-08-14T15:26:32;2.70;;;2.50;;
9827;SDS011;4953;48.952;9.442;2022-08-14T15:29:02;2.70;;;2.50;;
9827;SDS011;4953;48.952;9.442;2022-08-14T15:31:30;3.03;;;2.60;;
9827;SDS011;4953;48.952;9.442;2022-08-14T15:33:57;2.73;;;2.53;;
9827;SDS011;4953;48.952;9.442;2022-08-14T15:36:35;2.73;;;2.53;;
9827;SDS011;4953;48.952;9.442;2022-08-14T15:39:03;3.10;;;2.90;;
9827;SDS011;4953;48.952;9.442;2022-08-14T15:41:30;5.63;;;3.13;;
9827;SDS011;4953;48.952;9.442;2022-08-14T15:43:58;4.00;;;3.40;;
9827;SDS011;4953;48.952;9.442;2022-08-14T15:46:27;4.50;;;3.37;;
9827;SDS011;4953;48.952;9.442;2022-08-14T15:48:54;4.27;;;3.07;;
9827;SDS011;4953;48.952;9.442;2022-08-14T15:51:21;3.97;;;2.80;;
9827;SDS011;4953;48.952;9.442;2022-08-14T15:53:48;3.90;;;3.00;;
9827;SDS011;4953;48.952;9.442;2022-08-14T15:56:15;3.50;;;2.90;;
9827;SDS011;4953;48.952;9.442;2022-08-14T15:58:42;3.17;;;2.90;;
9827;SDS011;4953;48.952;9.442;2022-08-14T16:01:11;3.30;;;3.00;;
9827;SDS011;4953;48.952;9.442;2022-08-14T16:03:48;3.17;;;2.70;;
9827;SDS011;4953;48.952;9.442;2022-08-14T16:06:18;4.93;;;2.63;;
9827;SDS011;4953;48.952;9.442;2022-08-14T16:08:47;7.20;;;4.13;;
9827;SDS011;4953;48.952;9.442;2022-08-14T16:11:16;8.00;;;4.30;;
9827;SDS011;4953;48.952;9.442;2022-08-14T16:13:43;6.20;;;4.60;;
9827;SDS011;4953;48.952;9.442;2022-08-14T16:16:16;3.57;;;3.17;;
9827;SDS011;4953;48.952;9.442;2022-08-14T16:18:44;3.00;;;2.53;;
9827;SDS011;4953;48.952;9.442;2022-08-14T16:21:13;3.60;;;3.07;;
9827;SDS011;4953;48.952;9.442;2022-08-14T16:23:41;2.90;;;2.67;;
9827;SDS011;4953;48.952;9.442;2022-08-14T16:26:12;2.60;;;2.40;;
9827;SDS011;4953;48.952;9.442;2022-08-14T16:28:40;4.67;;;2.80;;
9827;SDS011;4953;48.952;9.442;2022-08-14T16:31:08;2.80;;;2.60;;
9827;SDS011;4953;48.952;9.442;2022-08-14T16:33:37;4.90;;;2.97;;
9827;SDS011;4953;48.952;9.442;2022-08-14T16:36:04;3.10;;;2.50;;
9827;SDS011;4953;48.952;9.442;2022-08-14T16:38:32;2.90;;;2.60;;
9827;SDS011;4953;48.952;9.442;2022-08-14T16:41:01;3.17;;;2.87;;
9827;SDS011;4953;48.952;9.442;2022-08-14T16:43:52;3.90;;;2.23;;
9827;SDS011;4953;48.952;9.442;2022-08-14T16:46:21;2.83;;;2.53;;
9827;SDS011;4953;48.952;9.442;2022-08-14T16:48:50;3.30;;;2.40;;
9827;SDS011;4953;48.952;9.442;2022-08-14T16:51:17;2.90;;;2.57;;
9827;SDS011;4953;48.952;9.442;2022-08-14T16:53:45;2.60;;;2.40;;
9827;SDS011;4953;48.952;9.442;2022-08-14T16:56:17;4.10;;;2.30;;
9827;SDS011;4953;48.952;9.442;2022-08-14T16:58:46;2.70;;;2.47;;
9827;SDS011;4953;48.952;9.442;2022-08-14T17:01:16;2.53;;;2.27;;
9827;SDS011;4953;48.952;9.442;2022-08-14T17:03:54;2.60;;;2.40;;
9827;SDS011;4953;48.952;9.442;2022-08-14T17:09:24;4.90;;;4.40;;
9827;SDS011;4953;48.952;9.442;2022-08-14T17:11:53;4.50;;;3.53;;
9827;SDS011;4953;48.952;9.442;2022-08-14T17:14:23;11.67;;;10.57;;
9827;SDS011;4953;48.952;9.442;2022-08-14T17:17:15;4.60;;;4.13;;
9827;SDS011;4953;48.952;9.442;2022-08-14T17:19:44;4.67;;;3.60;;
9827;SDS011;4953;48.952;9.442;2022-08-14T17:22:12;3.57;;;2.83;;
9827;SDS011;4953;48.952;9.442;2022-08-14T17:24:40;4.30;;;3.27;;
9827;SDS011;4953;48.952;9.442;2022-08-14T17:27:08;4.30;;;3.90;;
9827;SDS011;4953;48.952;9.442;2022-08-14T17:29:36;7.30;;;3.63;;
9827;SDS011;4953;48.952;9.442;2022-08-14T17:32:06;17.43;;;13.70;;
9827;SDS011;4953;48.952;9.442;2022-08-14T17:34:46;22.17;;;19.53;;
9827;SDS011;4953;48.952;9.442;2022-08-14T17:37:26;19.73;;;17.73;;
9827;SDS011;4953;48.952;9.442;2022-08-14T17:40:01;14.43;;;10.83;;
9827;SDS011;4953;48.952;9.442;2022-08-14T17:45:20;6.43;;;5.83;;
9827;SDS011;4953;48.952;9.442;2022-08-14T17:47:53;6.23;;;5.57;;
9827;SDS011;4953;48.952;9.442;2022-08-14T17:53:12;5.20;;;4.70;;
9827;SDS011;4953;48.952;9.442;2022-08-14T17:55:41;6.90;;;5.13;;
9827;SDS011;4953;48.952;9.442;2022-08-14T17:58:10;9.50;;;7.70;;
9827;SDS011;4953;48.952;9.442;2022-08-14T18:00:39;7.90;;;7.03;;
9827;SDS011;4953;48.952;9.442;2022-08-14T18:03:07;8.80;;;6.80;;
9827;SDS011;4953;48.952;9.442;2022-08-14T18:05:36;7.27;;;6.13;;
9827;SDS011;4953;48.952;9.442;2022-08-14T18:08:06;7.20;;;5.60;;
9827;SDS011;4953;48.952;9.442;2022-08-14T18:10:35;7.37;;;5.80;;
9827;SDS011;4953;48.952;9.442;2022-08-14T18:13:05;8.27;;;5.43;;
9827;SDS011;4953;48.952;9.442;2022-08-14T18:15:33;6.70;;;4.73;;
9827;SDS011;4953;48.952;9.442;2022-08-14T18:18:00;6.03;;;4.07;;
9827;SDS011;4953;48.952;9.442;2022-08-14T18:20:31;4.13;;;3.50;;
9827;SDS011;4953;48.952;9.442;2022-08-14T18:23:02;9.07;;;3.60;;
9827;SDS011;4953;48.952;9.442;2022-08-14T18:25:31;4.17;;;3.17;;
9827;SDS011;4953;48.952;9.442;2022-08-14T18:28:05;7.33;;;2.90;;
9827;SDS011;4953;48.952;9.442;2022-08-14T18:30:35;3.87;;;3.30;;
9827;SDS011;4953;48.952;9.442;2022-08-14T18:33:12;3.83;;;3.47;;
9827;SDS011;4953;48.952;9.442;2022-08-14T18:35:41;4.40;;;3.10;;
9827;SDS011;4953;48.952;9.442;2022-08-14T18:38:14;4.50;;;3.00;;
9827;SDS011;4953;48.952;9.442;2022-08-14T18:40:49;3.80;;;3.30;;
9827;SDS011;4953;48.952;9.442;2022-08-14T18:46:05;4.37;;;3.47;;
9827;SDS011;4953;48.952;9.442;2022-08-14T18:48:32;5.40;;;3.37;;
9827;SDS011;4953;48.952;9.442;2022-08-14T18:50:59;9.30;;;3.90;;
9827;SDS011;4953;48.952;9.442;2022-08-14T18:53:28;3.87;;;3.57;;
9827;SDS011;4953;48.952;9.442;2022-08-14T18:56:16;5.47;;;4.03;;
9827;SDS011;4953;48.952;9.442;2022-08-14T18:58:47;6.13;;;3.70;;
9827;SDS011;4953;48.952;9.442;2022-08-14T19:01:22;9.90;;;3.77;;
9827;SDS011;4953;48.952;9.442;2022-08-14T19:03:51;3.60;;;3.10;;
9827;SDS011;4953;48.952;9.442;2022-08-14T19:06:45;6.40;;;3.23;;
9827;SDS011;4953;48.952;9.442;2022-08-14T19:15:29;3.90;;;3.30;;
9827;SDS011;4953;48.952;9.442;2022-08-14T19:20:47;4.27;;;3.63;;
9827;SDS011;4953;48.952;9.442;2022-08-14T19:23:15;6.43;;;3.47;;
9827;SDS011;4953;48.952;9.442;2022-08-14T19:25:48;5.10;;;3.47;;
9827;SDS011;4953;48.952;9.442;2022-08-14T19:28:20;10.90;;;3.93;;
9827;SDS011;4953;48.952;9.442;2022-08-14T19:30:48;4.60;;;3.30;;
9827;SDS011;4953;48.952;9.442;2022-08-14T19:36:18;3.60;;;3.00;;
9827;SDS011;4953;48.952;9.442;2022-08-14T19:38:48;6.40;;;4.70;;
9827;SDS011;4953;48.952;9.442;2022-08-14T19:41:21;5.63;;;4.17;;
9827;SDS011;4953;48.952;9.442;2022-08-14T19:43:53;8.10;;;4.17;;
9827;SDS011;4953;48.952;9.442;2022-08-14T19:46:21;6.80;;;4.27;;
9827;SDS011;4953;48.952;9.442;2022-08-14T19:48:49;9.20;;;4.63;;
9827;SDS011;4953;48.952;9.442;2022-08-14T19:51:17;6.30;;;4.20;;
9827;SDS011;4953;48.952;9.442;2022-08-14T19:53:48;6.57;;;4.50;;
9827;SDS011;4953;48.952;9.442;2022-08-14T19:56:17;7.40;;;3.83;;